Time,TemperatureF,DewpointF,PressureIn,WindDirection,WindDirectionDegrees,WindSpeedMPH,WindSpeedGustMPH,Humidity,HourlyPrecipIn,Conditions,Clouds,dailyrainin,SolarRadiationWatts/m^2,SoftwareType,DateUTC
2013-03-07 00:04:00,41.6,41.6,29.62,SSW,192,8.1,8.1,100,0.01,RA,,0.00,0.0,WeatherDisplay:10.37,2013-03-07 00:04:00,
2013-03-07 00:09:00,41.6,41.6,29.62,South,175,11.5,11.5,100,0.01,RA,,0.00,0.0,WeatherDisplay:10.37,2013-03-07 00:09:00,
2013-03-07 00:14:00,41.6,41.6,29.62,SSW,203,8.1,8.1,100,0.01,,,0.00,0.0,WeatherDisplay:10.37,2013-03-07 00:14:00,
2013-03-07 00:20:00,41.6,41.6,29.62,South,179,6.9,6.9,100,0.01,CLR,,0.00,0.0,WeatherDisplay:10.37,2013-03-07 00:20:00,
2013-03-07 00:25:00,41.6,41.6,29.62,SSE,158,11.5,11.5,100,0.02,RA,,0.01,0.0,WeatherDisplay:10.37,2013-03-07 00:25:00,
2013-03-07 00:30:00,41.6,41.6,29.62,South,182,11.5,11.5,100,0.02,RA,,0.01,0.0,WeatherDisplay:10.37,2013-03-07 00:30:00,
2013-03-07 00:35:00,41.6,41.6,29.62,South,176,11.5,11.5,100,0.02,CLR,,0.01,0.0,WeatherDisplay:10.37,2013-03-07 00:35:00,
2013-03-07 00:41:00,41.6,41.6,29.62,SE,144,8.1,8.1,100,0.02,CLR,,0.01,0.0,WeatherDisplay:10.37,2013-03-07 00:41:00,
2013-03-07 00:46:00,41.6,41.6,29.61,SSE,148,10.4,10.4,100,0.02,CLR,,0.01,0.0,WeatherDisplay:10.37,2013-03-07 00:46:00,
2013-03-07 00:51:00,41.6,41.6,29.61,South,176,7.0,7.0,100,0.02,CLR,,0.01,0.0,WeatherDisplay:10.37,2013-03-07 00:51:00,
2013-03-07 00:56:00,41.6,41.6,29.61,SSW,192,6.9,6.9,100,0.02,RA,,0.02,0.0,WeatherDisplay:10.37,2013-03-07 00:56:00,
2013-03-07 01:01:00,41.5,41.5,29.61,South,169,8.1,8.1,100,0.02,RA,,0.02,0.0,WeatherDisplay:10.37,2013-03-07 01:01:00,
2013-03-07 01:06:00,41.5,41.5,29.61,SSW,203,13.0,13.0,100,0.02,CLR,,0.02,0.0,WeatherDisplay:10.37,2013-03-07 01:06:00,
2013-03-07 01:11:00,41.5,41.5,29.61,SSE,167,7.0,7.0,100,0.02,CLR,,0.02,0.0,WeatherDisplay:10.37,2013-03-07 01:11:00,
2013-03-07 01:16:00,41.5,41.5,29.61,SW,229,9.2,9.2,100,0.02,CLR,,0.02,0.0,WeatherDisplay:10.37,2013-03-07 01:16:00,
2013-03-07 01:22:00,41.5,41.5,29.61,SW,219,10.4,10.4,100,0.02,RA,,0.03,0.0,WeatherDisplay:10.37,2013-03-07 01:22:00,
2013-03-07 01:27:00,41.5,41.5,29.61,SSW,195,6.9,6.9,100,0.02,RA,,0.03,0.0,WeatherDisplay:10.37,2013-03-07 01:27:00,
2013-03-07 01:32:00,41.5,41.5,29.61,SSW,198,10.4,10.4,100,0.02,CLR,,0.03,0.0,WeatherDisplay:10.37,2013-03-07 01:32:00,
2013-03-07 01:37:00,41.5,41.5,29.61,SW,233,13.8,13.8,100,0.02,CLR,,0.03,0.0,WeatherDisplay:10.37,2013-03-07 01:37:00,
2013-03-07 01:42:00,41.5,41.5,29.61,SE,141,11.5,11.5,100,0.03,RA,,0.04,0.0,WeatherDisplay:10.37,2013-03-07 01:42:00,
2013-03-07 01:47:00,41.5,41.5,29.61,South,178,8.1,8.1,100,0.03,RA,,0.04,0.0,WeatherDisplay:10.37,2013-03-07 01:47:00,
2013-03-07 01:52:00,41.5,41.5,29.61,SSW,196,8.0,8.0,100,0.03,,,0.05,0.0,WeatherDisplay:10.37,2013-03-07 01:52:00,
2013-03-07 01:57:00,41.5,41.5,29.61,South,188,8.0,8.0,100,0.03,RA,,0.05,0.0,WeatherDisplay:10.37,2013-03-07 01:57:00,
2013-03-07 02:02:00,41.6,41.6,29.61,SW,219,8.0,8.0,100,0.04,RA,,0.06,0.0,WeatherDisplay:10.37,2013-03-07 02:02:00,
2013-03-07 02:07:00,41.6,41.6,29.61,South,185,6.9,6.9,100,0.04,RA,,0.06,0.0,WeatherDisplay:10.37,2013-03-07 02:07:00,
2013-03-07 02:12:00,41.6,41.6,29.61,South,184,9.2,9.2,100,0.05,RA,,0.07,0.0,WeatherDisplay:10.37,2013-03-07 02:12:00,
2013-03-07 02:18:00,41.6,41.6,29.61,SW,220,8.1,8.1,100,0.04,RA,,0.07,0.0,WeatherDisplay:10.37,2013-03-07 02:18:00,
2013-03-07 02:23:00,41.6,41.6,29.61,SSW,206,12.7,12.7,100,0.04,CLR,,0.07,0.0,WeatherDisplay:10.37,2013-03-07 02:23:00,
2013-03-07 02:28:00,41.6,41.6,29.61,SSW,212,6.9,6.9,100,0.04,CLR,,0.07,0.0,WeatherDisplay:10.37,2013-03-07 02:28:00,
2013-03-07 02:33:00,41.6,41.6,29.61,South,186,8.1,8.1,100,0.05,RA,,0.08,0.0,WeatherDisplay:10.37,2013-03-07 02:33:00,
2013-03-07 02:38:00,41.6,41.6,29.60,SSE,165,10.4,10.4,100,0.05,RA,,0.08,0.0,WeatherDisplay:10.37,2013-03-07 02:38:00,
2013-03-07 02:43:00,41.6,41.6,29.60,SSE,157,9.2,9.2,100,0.04,,,0.08,0.0,WeatherDisplay:10.37,2013-03-07 02:43:00,
2013-03-07 02:48:00,41.6,41.6,29.60,South,185,10.4,10.4,100,0.05,RA,,0.09,0.0,WeatherDisplay:10.37,2013-03-07 02:48:00,
2013-03-07 02:54:00,41.6,41.6,29.60,SSW,198,4.6,4.6,100,0.04,,,0.09,0.0,WeatherDisplay:10.37,2013-03-07 02:54:00,
2013-03-07 02:59:00,41.6,41.6,29.60,SSW,206,10.4,10.4,100,0.05,RA,,0.10,0.0,WeatherDisplay:10.37,2013-03-07 02:59:00,
2013-03-07 03:04:00,41.8,41.8,29.60,SW,226,8.1,8.1,100,0.04,RA,,0.10,0.0,WeatherDisplay:10.37,2013-03-07 03:04:00,
2013-03-07 03:09:00,41.8,41.8,29.60,SSW,209,6.9,6.9,100,0.04,RA,,0.11,0.0,WeatherDisplay:10.37,2013-03-07 03:09:00,
2013-03-07 03:14:00,41.8,41.8,29.60,South,181,11.5,11.5,100,0.04,RA,,0.11,0.0,WeatherDisplay:10.37,2013-03-07 03:14:00,
2013-03-07 03:19:00,41.8,41.8,29.60,SSE,158,12.7,12.7,100,0.05,RA,,0.12,0.0,WeatherDisplay:10.37,2013-03-07 03:19:00,
2013-03-07 03:24:00,41.8,41.8,29.60,SSE,164,8.1,8.1,100,0.05,RA,,0.12,0.0,WeatherDisplay:10.37,2013-03-07 03:24:00,
2013-03-07 03:30:00,41.8,41.8,29.60,SSE,161,11.5,11.5,100,0.06,RA,,0.13,0.0,WeatherDisplay:10.37,2013-03-07 03:30:00,
2013-03-07 03:35:00,41.9,41.9,29.59,SSE,147,10.4,10.4,100,0.05,RA,,0.13,0.0,WeatherDisplay:10.37,2013-03-07 03:35:00,
2013-03-07 03:40:00,41.9,41.9,29.59,SW,224,11.5,11.5,100,0.06,RA,,0.14,0.0,WeatherDisplay:10.37,2013-03-07 03:40:00,
2013-03-07 03:46:00,41.9,41.9,29.59,SE,143,10.4,10.4,100,0.05,RA,,0.14,0.0,WeatherDisplay:10.37,2013-03-07 03:46:00,
2013-03-07 03:51:00,41.9,41.9,29.59,South,176,8.1,8.1,100,0.06,RA,,0.15,0.0,WeatherDisplay:10.37,2013-03-07 03:51:00,
2013-03-07 03:56:00,41.9,41.9,29.59,SSE,155,6.0,6.0,100,0.06,RA,,0.15,0.0,WeatherDisplay:10.37,2013-03-07 03:56:00,
2013-03-07 04:01:00,42.1,42.1,29.59,South,186,10.4,10.4,100,0.05,,,0.15,0.0,WeatherDisplay:10.37,2013-03-07 04:01:00,
2013-03-07 04:06:00,42.1,42.1,29.59,SW,219,7.0,7.0,100,0.06,RA,,0.16,0.0,WeatherDisplay:10.37,2013-03-07 04:06:00,
2013-03-07 04:11:00,42.1,42.1,29.59,SSW,198,7.0,7.0,100,0.05,RA,,0.16,0.0,WeatherDisplay:10.37,2013-03-07 04:11:00,
2013-03-07 04:16:00,42.1,42.1,29.59,SSE,167,11.5,11.5,100,0.05,,,0.16,0.0,WeatherDisplay:10.37,2013-03-07 04:16:00,
2013-03-07 04:22:00,42.1,42.1,29.59,SSW,200,12.7,12.7,100,0.04,CLR,,0.16,0.0,WeatherDisplay:10.37,2013-03-07 04:22:00,
2013-03-07 04:27:00,42.1,42.1,29.59,SSW,208,6.0,6.0,100,0.04,CLR,,0.16,0.0,WeatherDisplay:10.37,2013-03-07 04:27:00,
2013-03-07 04:32:00,42.1,42.1,29.59,South,174,4.6,4.6,100,0.03,CLR,,0.16,0.0,WeatherDisplay:10.37,2013-03-07 04:32:00,
2013-03-07 04:37:00,42.1,42.1,29.58,SSE,151,5.8,5.8,100,0.04,RA,,0.17,0.0,WeatherDisplay:10.37,2013-03-07 04:37:00,
2013-03-07 04:42:00,42.1,42.1,29.58,SSW,208,8.1,8.1,100,0.03,RA,,0.17,0.0,WeatherDisplay:10.37,2013-03-07 04:42:00,
2013-03-07 04:47:00,42.1,42.1,29.58,SW,222,11.5,11.5,100,0.03,,,0.17,0.0,WeatherDisplay:10.37,2013-03-07 04:47:00,
2013-03-07 04:52:00,42.1,42.1,29.58,SSW,213,10.4,10.4,100,0.02,CLR,,0.17,0.0,WeatherDisplay:10.37,2013-03-07 04:52:00,
2013-03-07 04:58:00,42.1,42.1,29.58,SW,229,13.0,13.0,100,0.02,CLR,,0.17,0.0,WeatherDisplay:10.37,2013-03-07 04:58:00,
2013-03-07 05:00:00,42.1,42.1,29.58,South,191,10.4,10.4,100,0.02,CLR,,0.17,0.0,WeatherDisplay:10.37,2013-03-07 05:00:00,
2013-03-07 05:04:00,42.1,42.1,29.58,SSW,208,8.1,8.1,100,0.02,CLR,,0.17,0.0,WeatherDisplay:10.37,2013-03-07 05:04:00,
2013-03-07 05:10:00,42.1,42.1,29.58,SSW,196,10.0,10.0,100,0.01,CLR,,0.17,0.0,WeatherDisplay:10.37,2013-03-07 05:10:00,
2013-03-07 05:15:00,42.1,42.1,29.58,SSW,192,5.0,12.0,100,0.00,CLR,,0.17,0.0,WeatherDisplay:10.37,2013-03-07 05:15:00,
2013-03-07 05:20:00,42.1,42.1,29.58,SSE,167,6.9,6.9,100,0.01,CLR,,0.17,0.0,WeatherDisplay:10.37,2013-03-07 05:20:00,
2013-03-07 05:25:00,42.1,42.1,29.58,NW,325,6.9,6.9,100,0.01,CLR,,0.17,0.0,WeatherDisplay:10.37,2013-03-07 05:25:00,
2013-03-07 05:30:00,42.2,42.2,29.58,SE,127,8.1,8.1,100,0.01,CLR,,0.17,0.0,WeatherDisplay:10.37,2013-03-07 05:30:00,
2013-03-07 05:36:00,42.2,42.2,29.58,SSW,195,10.4,10.4,100,0.01,CLR,,0.17,0.0,WeatherDisplay:10.37,2013-03-07 05:36:00,
2013-03-07 05:41:00,42.2,42.2,29.58,SE,124,6.9,6.9,100,0.00,CLR,,0.17,0.0,WeatherDisplay:10.37,2013-03-07 05:41:00,
2013-03-07 05:46:00,42.3,42.3,29.58,SE,137,10.4,10.4,100,0.01,RA,,0.18,0.0,WeatherDisplay:10.37,2013-03-07 05:46:00,
2013-03-07 05:51:00,42.3,42.3,29.58,SSE,152,6.9,6.9,100,0.01,RA,,0.18,0.0,WeatherDisplay:10.37,2013-03-07 05:51:00,
2013-03-07 05:56:00,42.3,42.3,29.58,SSE,158,6.9,6.9,100,0.01,,,0.18,0.0,WeatherDisplay:10.37,2013-03-07 05:56:00,
2013-03-07 06:02:00,42.3,42.3,29.58,South,175,6.0,6.0,100,0.01,CLR,,0.18,0.0,WeatherDisplay:10.37,2013-03-07 06:02:00,
2013-03-07 06:07:00,42.5,42.5,29.58,South,176,10.4,10.4,100,0.01,CLR,,0.18,0.0,WeatherDisplay:10.37,2013-03-07 06:07:00,
2013-03-07 06:12:00,42.5,42.5,29.58,SSE,161,8.1,8.1,100,0.01,CLR,,0.18,0.0,WeatherDisplay:10.37,2013-03-07 06:12:00,
2013-03-07 06:17:00,42.5,42.5,29.58,South,175,8.1,8.1,100,0.02,RA,,0.19,0.0,WeatherDisplay:10.37,2013-03-07 06:17:00,
2013-03-07 06:22:00,42.5,42.5,29.57,SSE,164,11.5,11.5,100,0.02,RA,,0.19,0.0,WeatherDisplay:10.37,2013-03-07 06:22:00,
2013-03-07 06:28:00,42.5,42.5,29.57,South,186,9.2,9.2,100,0.02,OVC,,0.19,0.0,WeatherDisplay:10.37,2013-03-07 06:28:00,
2013-03-07 06:33:00,42.5,42.5,29.57,SE,145,10.4,10.4,100,0.02,OVC,,0.19,0.0,WeatherDisplay:10.37,2013-03-07 06:33:00,
2013-03-07 06:38:00,42.5,42.5,29.57,SSE,150,11.5,11.5,100,0.02,OVC,,0.19,0.0,WeatherDisplay:10.37,2013-03-07 06:38:00,
2013-03-07 06:43:00,42.5,42.5,29.57,SSW,195,9.2,9.2,100,0.02,OVC,,0.19,0.0,WeatherDisplay:10.37,2013-03-07 06:43:00,
2013-03-07 06:48:00,42.5,42.5,29.57,South,185,8.0,8.0,100,0.01,OVC,,0.19,0.0,WeatherDisplay:10.37,2013-03-07 06:48:00,
2013-03-07 06:53:00,42.5,42.5,29.57,South,175,8.1,8.1,100,0.01,OVC,,0.19,0.0,WeatherDisplay:10.37,2013-03-07 06:53:00,
2013-03-07 06:58:00,42.5,42.5,29.57,SSE,165,6.0,6.0,100,0.02,RA,,0.20,0.0,WeatherDisplay:10.37,2013-03-07 06:58:00,
2013-03-07 07:03:00,42.5,42.5,29.57,SSW,210,6.9,6.9,100,0.02,RA,,0.20,0.0,WeatherDisplay:10.37,2013-03-07 07:03:00,
2013-03-07 07:08:00,42.5,42.5,29.57,South,185,6.9,6.9,100,0.02,OVC,,0.20,0.0,WeatherDisplay:10.37,2013-03-07 07:08:00,
2013-03-07 07:13:00,42.5,42.5,29.57,South,176,6.9,6.9,100,0.03,RA,,0.21,0.0,WeatherDisplay:10.37,2013-03-07 07:13:00,
2013-03-07 07:19:00,42.5,42.5,29.57,South,178,10.4,10.4,100,0.02,RA,,0.21,5.0,WeatherDisplay:10.37,2013-03-07 07:19:00,
2013-03-07 07:24:00,42.6,42.6,29.57,South,174,6.9,6.9,100,0.02,OVC,,0.21,5.0,WeatherDisplay:10.37,2013-03-07 07:24:00,
2013-03-07 07:29:00,42.6,42.6,29.57,South,182,6.9,6.9,100,0.02,OVC,,0.22,7.0,WeatherDisplay:10.37,2013-03-07 07:29:00,
2013-03-07 07:34:00,42.6,42.6,29.57,SSE,160,8.1,8.1,100,0.03,RA,,0.22,7.0,WeatherDisplay:10.37,2013-03-07 07:34:00,
2013-03-07 07:40:00,42.6,42.6,29.57,SSE,160,8.1,8.1,100,0.03,RA,,0.22,9.0,WeatherDisplay:10.37,2013-03-07 07:40:00,
2013-03-07 07:45:00,42.6,42.6,29.57,SSE,155,8.1,8.1,100,0.03,OVC,,0.22,9.0,WeatherDisplay:10.37,2013-03-07 07:45:00,
2013-03-07 07:50:00,42.6,42.6,29.57,SE,134,8.1,8.1,100,0.04,RA,,0.23,11.0,WeatherDisplay:10.37,2013-03-07 07:50:00,
2013-03-07 07:55:00,42.6,42.6,29.57,South,172,6.9,6.9,100,0.04,RA,,0.23,11.0,WeatherDisplay:10.37,2013-03-07 07:55:00,
2013-03-07 08:00:00,42.7,42.7,29.57,South,182,5.0,12.0,100,0.00,OVC,,0.23,12.0,WeatherDisplay:10.37,2013-03-07 08:00:00,
2013-03-07 08:05:00,42.8,42.8,29.57,SE,130,11.5,11.5,100,0.03,OVC,,0.23,12.0,WeatherDisplay:10.37,2013-03-07 08:05:00,
2013-03-07 08:10:00,42.8,42.8,29.57,SSE,165,11.5,11.5,100,0.03,OVC,,0.23,12.0,WeatherDisplay:10.37,2013-03-07 08:10:00,
2013-03-07 08:15:00,42.8,42.8,29.57,South,174,5.8,5.8,100,0.03,RA,,0.24,12.0,WeatherDisplay:10.37,2013-03-07 08:15:00,
2013-03-07 08:20:00,42.8,42.8,29.57,South,185,8.1,8.1,100,0.03,RA,,0.24,14.0,WeatherDisplay:10.37,2013-03-07 08:20:00,
2013-03-07 08:26:00,42.9,42.9,29.57,South,189,10.4,10.4,100,0.03,OVC,,0.24,19.0,WeatherDisplay:10.37,2013-03-07 08:26:00,
2013-03-07 08:31:00,42.9,42.9,29.57,SE,124,6.0,6.0,100,0.02,OVC,,0.24,18.0,WeatherDisplay:10.37,2013-03-07 08:31:00,
2013-03-07 08:36:00,42.9,42.9,29.57,South,189,11.5,11.5,100,0.02,OVC,,0.24,19.0,WeatherDisplay:10.37,2013-03-07 08:36:00,
2013-03-07 08:41:00,43.1,43.1,29.57,NW,316,5.8,5.8,100,0.02,OVC,,0.24,19.0,WeatherDisplay:10.37,2013-03-07 08:41:00,
2013-03-07 08:46:00,43.1,43.1,29.57,South,175,12.7,12.7,100,0.01,OVC,,0.24,19.0,WeatherDisplay:10.37,2013-03-07 08:46:00,
2013-03-07 08:51:00,43.1,43.1,29.57,SE,143,10.4,10.4,100,0.01,OVC,,0.24,18.0,WeatherDisplay:10.37,2013-03-07 08:51:00,
2013-03-07 08:57:00,43.1,43.1,29.57,South,186,8.1,8.1,100,0.01,OVC,,0.24,21.0,WeatherDisplay:10.37,2013-03-07 08:57:00,
2013-03-07 09:02:00,43.1,43.1,29.57,South,169,11.5,11.5,100,0.01,OVC,,0.24,19.0,WeatherDisplay:10.37,2013-03-07 09:02:00,
2013-03-07 09:07:00,43.2,43.2,29.57,SSE,148,9.2,9.2,100,0.01,OVC,,0.24,21.0,WeatherDisplay:10.37,2013-03-07 09:07:00,
2013-03-07 09:12:00,43.2,43.2,29.57,SE,138,6.9,6.9,100,0.01,OVC,,0.24,23.0,WeatherDisplay:10.37,2013-03-07 09:12:00,
2013-03-07 09:17:00,43.2,43.2,29.57,South,181,10.4,10.4,100,0.00,OVC,,0.24,26.0,WeatherDisplay:10.37,2013-03-07 09:17:00,
2013-03-07 09:22:00,43.3,43.3,29.57,SE,130,11.5,11.5,100,0.00,OVC,,0.24,30.0,WeatherDisplay:10.37,2013-03-07 09:22:00,
2013-03-07 09:27:00,43.3,43.3,29.57,SE,145,10.4,10.4,100,0.00,OVC,,0.24,30.0,WeatherDisplay:10.37,2013-03-07 09:27:00,
2013-03-07 09:32:00,43.3,43.3,29.57,SSW,195,11.5,11.5,100,0.00,OVC,,0.24,33.0,WeatherDisplay:10.37,2013-03-07 09:32:00,
2013-03-07 09:37:00,43.5,43.5,29.57,SE,124,11.5,11.5,100,0.00,OVC,,0.24,33.0,WeatherDisplay:10.37,2013-03-07 09:37:00,
2013-03-07 09:42:00,43.5,43.5,29.57,South,171,6.9,6.9,100,0.00,OVC,,0.24,40.0,WeatherDisplay:10.37,2013-03-07 09:42:00,
2013-03-07 09:47:00,43.6,43.6,29.56,South,179,11.5,11.5,100,0.00,OVC,,0.24,39.0,WeatherDisplay:10.37,2013-03-07 09:47:00,
2013-03-07 09:52:00,43.6,43.6,29.56,SSW,198,11.5,11.5,100,0.00,OVC,,0.24,44.0,WeatherDisplay:10.37,2013-03-07 09:52:00,
2013-03-07 09:57:00,43.8,43.8,29.56,SSE,164,12.7,12.7,100,0.00,OVC,,0.24,42.0,WeatherDisplay:10.37,2013-03-07 09:57:00,
2013-03-07 10:03:00,43.8,43.8,29.56,South,184,6.9,6.9,100,0.00,OVC,,0.24,46.0,WeatherDisplay:10.37,2013-03-07 10:03:00,
2013-03-07 10:08:00,43.8,43.8,29.56,SE,140,12.7,12.7,100,0.00,OVC,,0.24,46.0,WeatherDisplay:10.37,2013-03-07 10:08:00,
2013-03-07 10:13:00,43.9,43.9,29.56,SE,134,11.5,11.5,100,0.00,OVC,,0.24,42.0,WeatherDisplay:10.37,2013-03-07 10:13:00,
2013-03-07 10:18:00,43.9,43.9,29.56,South,188,10.4,10.4,100,0.00,OVC,,0.24,46.0,WeatherDisplay:10.37,2013-03-07 10:18:00,
2013-03-07 10:23:00,43.9,43.9,29.56,NNW,332,9.2,9.2,100,0.00,OVC,,0.24,42.0,WeatherDisplay:10.37,2013-03-07 10:23:00,
2013-03-07 10:28:00,43.9,43.9,29.55,ESE,119,10.4,10.4,100,0.00,OVC,,0.24,42.0,WeatherDisplay:10.37,2013-03-07 10:28:00,
2013-03-07 10:34:00,43.9,43.9,29.55,South,191,10.4,10.4,100,0.00,OVC,,0.24,49.0,WeatherDisplay:10.37,2013-03-07 10:34:00,
2013-03-07 10:39:00,44.1,44.1,29.55,SSE,155,16.1,16.1,100,0.00,OVC,,0.24,79.0,WeatherDisplay:10.37,2013-03-07 10:39:00,
2013-03-07 10:44:00,44.2,44.2,29.55,SE,126,11.5,11.5,100,0.00,OVC,,0.24,77.0,WeatherDisplay:10.37,2013-03-07 10:44:00,
2013-03-07 10:49:00,44.2,44.2,29.55,SE,144,11.5,11.5,100,0.00,OVC,,0.24,76.0,WeatherDisplay:10.37,2013-03-07 10:49:00,
2013-03-07 10:54:00,44.3,44.3,29.55,South,176,11.5,11.5,100,0.00,OVC,,0.24,56.0,WeatherDisplay:10.37,2013-03-07 10:54:00,
2013-03-07 11:00:00,44.3,44.3,29.55,South,171,11.5,11.5,100,0.00,OVC,,0.24,63.0,WeatherDisplay:10.37,2013-03-07 11:00:00,
2013-03-07 11:05:00,44.3,44.3,29.55,SSW,198,9.2,9.2,100,0.00,OVC,,0.24,51.0,WeatherDisplay:10.37,2013-03-07 11:05:00,
2013-03-07 11:10:00,44.3,44.3,29.55,South,174,11.5,11.5,100,0.00,OVC,,0.24,42.0,WeatherDisplay:10.37,2013-03-07 11:10:00,
2013-03-07 11:15:00,44.3,44.3,29.55,SSE,164,6.0,12.0,100,0.00,OVC,,0.24,37.0,WeatherDisplay:10.37,2013-03-07 11:15:00,
2013-03-07 11:20:00,44.2,44.2,29.55,SSE,158,11.5,11.5,100,0.00,OVC,,0.24,35.0,WeatherDisplay:10.37,2013-03-07 11:20:00,
2013-03-07 11:25:00,44.3,44.3,29.55,SSE,168,5.8,5.8,100,0.00,OVC,,0.24,42.0,WeatherDisplay:10.37,2013-03-07 11:25:00,
2013-03-07 11:30:00,44.3,44.3,29.55,South,182,11.5,11.5,100,0.00,OVC,,0.24,67.0,WeatherDisplay:10.37,2013-03-07 11:30:00,
2013-03-07 11:35:00,44.5,44.5,29.55,South,191,11.5,11.5,100,0.00,OVC,,0.24,83.0,WeatherDisplay:10.37,2013-03-07 11:35:00,
2013-03-07 11:40:00,44.6,44.6,29.55,SSW,209,11.5,11.5,100,0.00,OVC,,0.24,109.0,WeatherDisplay:10.37,2013-03-07 11:40:00,
2013-03-07 11:45:00,44.8,44.8,29.55,South,176,13.0,13.0,100,0.00,OVC,,0.24,95.0,WeatherDisplay:10.37,2013-03-07 11:45:00,
2013-03-07 11:51:00,44.9,44.9,29.55,South,188,9.0,9.0,100,0.00,OVC,,0.24,69.0,WeatherDisplay:10.37,2013-03-07 11:51:00,
2013-03-07 11:56:00,44.9,44.9,29.55,North,357,11.5,11.5,100,0.00,OVC,,0.24,67.0,WeatherDisplay:10.37,2013-03-07 11:56:00,
2013-03-07 12:01:00,44.8,44.8,29.55,South,186,12.7,12.7,100,0.00,OVC,,0.24,56.0,WeatherDisplay:10.37,2013-03-07 12:01:00,
2013-03-07 12:06:00,44.9,44.9,29.55,SSE,165,11.5,11.5,100,0.00,OVC,,0.24,58.0,WeatherDisplay:10.37,2013-03-07 12:06:00,
2013-03-07 12:11:00,44.9,44.9,29.55,SW,217,4.6,4.6,100,0.00,OVC,,0.24,62.0,WeatherDisplay:10.37,2013-03-07 12:11:00,
2013-03-07 12:16:00,45.1,45.1,29.55,South,182,12.7,12.7,100,0.00,OVC,,0.24,63.0,WeatherDisplay:10.37,2013-03-07 12:16:00,
2013-03-07 12:21:00,45.1,45.1,29.55,SSW,199,8.1,8.1,100,0.00,OVC,,0.24,67.0,WeatherDisplay:10.37,2013-03-07 12:21:00,
2013-03-07 12:26:00,45.2,45.2,29.55,SSW,195,10.4,10.4,100,0.00,OVC,,0.24,55.0,WeatherDisplay:10.37,2013-03-07 12:26:00,
2013-03-07 12:32:00,45.2,45.2,29.55,South,184,11.5,11.5,100,0.00,OVC,,0.24,55.0,WeatherDisplay:10.37,2013-03-07 12:32:00,
2013-03-07 12:37:00,45.2,45.2,29.55,SSW,202,11.5,11.5,100,0.00,OVC,,0.24,48.0,WeatherDisplay:10.37,2013-03-07 12:37:00,
2013-03-07 12:42:00,45.2,45.2,29.55,SSW,206,11.5,11.5,100,0.00,OVC,,0.25,49.0,WeatherDisplay:10.37,2013-03-07 12:42:00,
2013-03-07 12:47:00,45.2,45.2,29.55,SSW,208,11.5,11.5,100,0.01,RA,,0.25,55.0,WeatherDisplay:10.37,2013-03-07 12:47:00,
2013-03-07 12:52:00,45.4,45.4,29.54,SSW,198,12.7,12.7,100,0.01,RA,,0.25,70.0,WeatherDisplay:10.37,2013-03-07 12:52:00,
2013-03-07 12:58:00,45.4,45.4,29.54,SSW,200,9.2,9.2,100,0.01,OVC,,0.25,72.0,WeatherDisplay:10.37,2013-03-07 12:58:00,
2013-03-07 13:03:00,45.4,45.4,29.54,SW,224,11.5,11.5,100,0.01,OVC,,0.25,79.0,WeatherDisplay:10.37,2013-03-07 13:03:00,
2013-03-07 13:08:00,45.4,45.4,29.54,South,175,11.5,11.5,100,0.01,OVC,,0.25,99.0,WeatherDisplay:10.37,2013-03-07 13:08:00,
2013-03-07 13:13:00,45.5,45.5,29.54,South,188,6.9,6.9,100,0.01,OVC,,0.25,84.0,WeatherDisplay:10.37,2013-03-07 13:13:00,
2013-03-07 13:18:00,45.5,45.5,29.54,South,169,6.0,6.0,100,0.01,OVC,,0.25,44.0,WeatherDisplay:10.37,2013-03-07 13:18:00,
2013-03-07 13:23:00,45.5,45.5,29.54,SE,126,12.7,12.7,100,0.01,OVC,,0.25,90.0,WeatherDisplay:10.37,2013-03-07 13:23:00,
2013-03-07 13:28:00,45.5,45.5,29.54,South,184,11.5,11.5,100,0.01,OVC,,0.25,86.0,WeatherDisplay:10.37,2013-03-07 13:28:00,
2013-03-07 13:34:00,45.5,45.5,29.54,SSE,165,4.6,4.6,100,0.01,OVC,,0.25,69.0,WeatherDisplay:10.37,2013-03-07 13:34:00,
2013-03-07 13:39:00,45.5,45.5,29.53,SSE,147,6.9,6.9,100,0.01,OVC,,0.25,88.0,WeatherDisplay:10.37,2013-03-07 13:39:00,
2013-03-07 13:44:00,45.5,45.5,29.53,SSW,192,10.4,10.4,100,0.00,OVC,,0.25,77.0,WeatherDisplay:10.37,2013-03-07 13:44:00,
2013-03-07 13:49:00,45.5,45.5,29.53,SSW,195,6.9,6.9,100,0.00,OVC,,0.25,62.0,WeatherDisplay:10.37,2013-03-07 13:49:00,
2013-03-07 13:54:00,45.7,45.7,29.54,SSE,147,4.6,4.6,100,0.00,OVC,,0.25,53.0,WeatherDisplay:10.37,2013-03-07 13:54:00,
2013-03-07 13:59:00,45.7,45.7,29.53,South,185,8.0,8.0,100,0.00,OVC,,0.25,56.0,WeatherDisplay:10.37,2013-03-07 13:59:00,
2013-03-07 14:04:00,45.8,45.8,29.53,SSE,168,8.0,8.0,100,0.00,OVC,,0.25,62.0,WeatherDisplay:10.37,2013-03-07 14:04:00,
2013-03-07 14:10:00,45.8,45.8,29.53,SSE,147,6.9,6.9,100,0.00,OVC,,0.25,51.0,WeatherDisplay:10.37,2013-03-07 14:10:00,
2013-03-07 14:15:00,45.8,45.8,29.53,SSW,208,10.4,10.4,100,0.00,OVC,,0.25,58.0,WeatherDisplay:10.37,2013-03-07 14:15:00,
2013-03-07 14:20:00,45.8,45.8,29.53,WSW,241,6.9,6.9,100,0.01,RA,,0.26,60.0,WeatherDisplay:10.37,2013-03-07 14:20:00,
2013-03-07 14:25:00,45.8,45.8,29.54,South,178,6.0,6.0,100,0.01,RA,,0.26,37.0,WeatherDisplay:10.37,2013-03-07 14:25:00,
2013-03-07 14:30:00,45.8,45.8,29.54,SSE,151,11.5,11.5,100,0.01,OVC,,0.26,42.0,WeatherDisplay:10.37,2013-03-07 14:30:00,
2013-03-07 14:35:00,45.7,45.7,29.53,SSE,165,8.1,8.1,100,0.01,OVC,,0.26,48.0,WeatherDisplay:10.37,2013-03-07 14:35:00,
2013-03-07 14:40:00,45.7,45.7,29.53,SSE,148,6.9,6.9,100,0.01,OVC,,0.26,51.0,WeatherDisplay:10.37,2013-03-07 14:40:00,
2013-03-07 14:45:00,45.8,45.8,29.53,SSE,155,8.1,8.1,100,0.01,OVC,,0.26,62.0,WeatherDisplay:10.37,2013-03-07 14:45:00,
2013-03-07 14:51:00,45.8,45.8,29.53,South,178,10.4,10.4,100,0.01,OVC,,0.26,33.0,WeatherDisplay:10.37,2013-03-07 14:51:00,
2013-03-07 14:56:00,45.7,45.7,29.53,South,178,8.1,8.1,100,0.01,OVC,,0.26,49.0,WeatherDisplay:10.37,2013-03-07 14:56:00,
2013-03-07 15:01:00,45.5,45.5,29.53,South,169,8.0,8.0,100,0.01,OVC,,0.26,48.0,WeatherDisplay:10.37,2013-03-07 15:01:00,
2013-03-07 15:06:00,45.5,45.5,29.53,SSW,202,8.1,8.1,100,0.01,OVC,,0.26,48.0,WeatherDisplay:10.37,2013-03-07 15:06:00,
2013-03-07 15:11:00,45.5,45.5,29.53,SE,137,10.0,10.0,100,0.01,OVC,,0.26,46.0,WeatherDisplay:10.37,2013-03-07 15:11:00,
2013-03-07 15:16:00,45.4,45.4,29.52,South,169,10.4,10.4,100,0.00,OVC,,0.26,39.0,WeatherDisplay:10.37,2013-03-07 15:16:00,
2013-03-07 15:21:00,45.4,45.4,29.53,South,172,9.2,9.2,100,0.00,OVC,,0.26,32.0,WeatherDisplay:10.37,2013-03-07 15:21:00,
2013-03-07 15:27:00,45.4,45.4,29.52,North,350,8.1,8.1,100,0.00,OVC,,0.26,49.0,WeatherDisplay:10.37,2013-03-07 15:27:00,
2013-03-07 15:32:00,45.4,45.4,29.52,SSE,148,6.9,6.9,100,0.00,OVC,,0.26,51.0,WeatherDisplay:10.37,2013-03-07 15:32:00,
2013-03-07 15:37:00,45.4,45.4,29.52,WSW,237,11.5,11.5,100,0.00,OVC,,0.26,35.0,WeatherDisplay:10.37,2013-03-07 15:37:00,
2013-03-07 15:42:00,45.2,45.2,29.52,ESE,121,5.8,5.8,100,0.00,OVC,,0.26,32.0,WeatherDisplay:10.37,2013-03-07 15:42:00,
2013-03-07 15:48:00,45.2,45.2,29.52,SSE,160,8.1,8.1,100,0.00,OVC,,0.26,44.0,WeatherDisplay:10.37,2013-03-07 15:48:00,
2013-03-07 15:53:00,45.2,45.2,29.52,South,174,10.4,10.4,100,0.00,OVC,,0.26,37.0,WeatherDisplay:10.37,2013-03-07 15:53:00,
2013-03-07 15:58:00,45.2,45.2,29.52,South,191,11.5,11.5,100,0.00,OVC,,0.26,42.0,WeatherDisplay:10.37,2013-03-07 15:58:00,
2013-03-07 16:03:00,45.2,45.2,29.52,SSE,152,11.5,11.5,100,0.00,OVC,,0.26,39.0,WeatherDisplay:10.37,2013-03-07 16:03:00,
2013-03-07 16:08:00,45.1,45.1,29.52,SSE,152,11.5,11.5,100,0.00,OVC,,0.26,46.0,WeatherDisplay:10.37,2013-03-07 16:08:00,
2013-03-07 16:14:00,45.1,45.1,29.52,South,171,11.5,11.5,100,0.00,OVC,,0.26,33.0,WeatherDisplay:10.37,2013-03-07 16:14:00,
2013-03-07 16:19:00,45.1,45.1,29.52,South,188,12.7,12.7,100,0.00,OVC,,0.26,23.0,WeatherDisplay:10.37,2013-03-07 16:19:00,
2013-03-07 16:24:00,44.9,44.9,29.52,SSW,192,10.4,10.4,100,0.00,OVC,,0.26,18.0,WeatherDisplay:10.37,2013-03-07 16:24:00,
2013-03-07 16:29:00,44.9,44.9,29.52,SSW,202,17.3,17.3,100,0.00,OVC,,0.26,19.0,WeatherDisplay:10.37,2013-03-07 16:29:00,
2013-03-07 16:34:00,44.8,44.8,29.52,South,184,10.4,10.4,100,0.00,OVC,,0.26,18.0,WeatherDisplay:10.37,2013-03-07 16:34:00,
2013-03-07 16:40:00,44.8,44.8,29.52,SE,138,6.9,7.6,100,0.00,OVC,,0.26,14.0,WeatherDisplay:10.37,2013-03-07 16:40:00,
2013-03-07 16:45:00,44.6,44.6,29.52,SSE,160,11.5,11.5,100,0.00,OVC,,0.26,16.0,WeatherDisplay:10.37,2013-03-07 16:45:00,
2013-03-07 16:50:00,44.5,44.5,29.51,ESE,102,18.4,18.4,100,0.00,OVC,,0.26,18.0,WeatherDisplay:10.37,2013-03-07 16:50:00,
2013-03-07 16:55:00,44.3,44.3,29.52,SSE,152,13.8,13.8,100,0.00,OVC,,0.26,16.0,WeatherDisplay:10.37,2013-03-07 16:55:00,
2013-03-07 17:00:00,44.3,44.3,29.51,SE,136,16.1,16.1,100,0.00,OVC,,0.26,23.0,WeatherDisplay:10.37,2013-03-07 17:00:00,
2013-03-07 17:06:00,44.3,44.3,29.51,South,172,12.7,12.7,100,0.00,OVC,,0.26,16.0,WeatherDisplay:10.37,2013-03-07 17:06:00,
2013-03-07 17:11:00,44.2,44.2,29.51,South,179,11.5,11.5,100,0.00,OVC,,0.26,14.0,WeatherDisplay:10.37,2013-03-07 17:11:00,
2013-03-07 17:16:00,44.2,44.2,29.52,SE,138,10.4,10.4,100,0.00,OVC,,0.26,14.0,WeatherDisplay:10.37,2013-03-07 17:16:00,
2013-03-07 17:21:00,44.2,44.2,29.52,South,184,10.4,10.4,100,0.00,OVC,,0.26,11.0,WeatherDisplay:10.37,2013-03-07 17:21:00,
2013-03-07 17:26:00,44.1,44.1,29.52,SSE,147,12.7,12.7,100,0.00,OVC,,0.26,9.0,WeatherDisplay:10.37,2013-03-07 17:26:00,
2013-03-07 17:31:00,44.1,44.1,29.52,North,0,10.4,10.4,100,0.00,OVC,,0.26,7.0,WeatherDisplay:10.37,2013-03-07 17:31:00,
2013-03-07 17:37:00,43.9,43.9,29.52,NNW,336,11.5,11.5,100,0.00,OVC,,0.26,7.0,WeatherDisplay:10.37,2013-03-07 17:37:00,
2013-03-07 17:42:00,43.9,43.9,29.52,SSW,205,8.1,8.1,100,0.00,OVC,,0.26,5.0,WeatherDisplay:10.37,2013-03-07 17:42:00,
2013-03-07 17:47:00,43.9,43.9,29.52,SW,217,6.9,6.9,100,0.00,SCT,,0.26,5.0,WeatherDisplay:10.37,2013-03-07 17:47:00,
2013-03-07 17:52:00,43.9,43.9,29.52,SSE,154,13.8,13.8,100,0.00,OVC,,0.26,0.0,WeatherDisplay:10.37,2013-03-07 17:52:00,
2013-03-07 17:57:00,43.8,43.8,29.52,South,172,11.5,11.5,100,0.00,OVC,,0.26,0.0,WeatherDisplay:10.37,2013-03-07 17:57:00,
2013-03-07 18:03:00,43.8,43.8,29.52,SE,144,9.2,9.2,100,0.00,OVC,,0.26,0.0,WeatherDisplay:10.37,2013-03-07 18:03:00,
2013-03-07 18:08:00,43.8,43.8,29.52,WSW,241,10.4,10.4,100,0.00,OVC,,0.26,0.0,WeatherDisplay:10.37,2013-03-07 18:08:00,
2013-03-07 18:13:00,43.8,43.8,29.52,SSW,193,19.6,19.6,100,0.00,OVC,,0.26,0.0,WeatherDisplay:10.37,2013-03-07 18:13:00,
2013-03-07 18:18:00,43.8,43.8,29.52,SSE,154,17.3,17.3,100,0.00,OVC,,0.26,0.0,WeatherDisplay:10.37,2013-03-07 18:18:00,
2013-03-07 18:23:00,43.6,43.6,29.52,SSE,157,10.4,10.4,100,0.00,OVC,,0.26,0.0,WeatherDisplay:10.37,2013-03-07 18:23:00,
2013-03-07 18:28:00,43.6,43.6,29.52,ESE,116,13.8,13.8,100,0.00,OVC,,0.26,0.0,WeatherDisplay:10.37,2013-03-07 18:28:00,
2013-03-07 18:33:00,43.6,43.6,29.52,ESE,123,11.5,11.5,100,0.00,OVC,,0.26,0.0,WeatherDisplay:10.37,2013-03-07 18:33:00,
2013-03-07 18:38:00,43.6,43.6,29.52,South,185,11.5,11.5,100,0.00,CLR,,0.26,0.0,WeatherDisplay:10.37,2013-03-07 18:38:00,
2013-03-07 18:44:00,43.5,43.5,29.53,SW,227,4.6,4.6,100,0.00,CLR,,0.26,0.0,WeatherDisplay:10.37,2013-03-07 18:44:00,
2013-03-07 18:49:00,43.5,43.5,29.53,ESE,123,13.8,13.8,100,0.00,CLR,,0.26,0.0,WeatherDisplay:10.37,2013-03-07 18:49:00,
2013-03-07 18:54:00,43.5,43.5,29.53,SSE,160,8.1,8.1,100,0.00,CLR,,0.26,0.0,WeatherDisplay:10.37,2013-03-07 18:54:00,
2013-03-07 18:59:00,43.3,43.3,29.53,SSW,193,16.1,16.1,100,0.00,CLR,,0.26,0.0,WeatherDisplay:10.37,2013-03-07 18:59:00,
2013-03-07 19:05:00,43.3,43.3,29.53,South,179,11.5,11.5,100,0.00,CLR,,0.26,0.0,WeatherDisplay:10.37,2013-03-07 19:05:00,
2013-03-07 19:10:00,43.3,43.3,29.53,SSW,200,10.4,10.4,100,0.00,CLR,,0.26,0.0,WeatherDisplay:10.37,2013-03-07 19:10:00,
2013-03-07 19:15:00,43.3,43.3,29.53,SSW,198,8.0,13.0,100,0.00,CLR,,0.26,0.0,WeatherDisplay:10.37,2013-03-07 19:15:00,
2013-03-07 19:20:00,43.3,43.3,29.53,South,169,18.4,18.4,100,0.00,CLR,,0.26,0.0,WeatherDisplay:10.37,2013-03-07 19:20:00,
2013-03-07 19:25:00,43.3,43.3,29.53,SSE,158,5.8,5.8,100,0.00,CLR,,0.26,0.0,WeatherDisplay:10.37,2013-03-07 19:25:00,
2013-03-07 19:30:00,43.3,43.3,29.52,South,172,10.4,10.4,100,0.00,CLR,,0.26,0.0,WeatherDisplay:10.37,2013-03-07 19:30:00,
2013-03-07 19:35:00,43.3,43.3,29.52,SSW,200,6.9,6.9,100,0.00,CLR,,0.26,0.0,WeatherDisplay:10.37,2013-03-07 19:35:00,
2013-03-07 19:41:00,43.3,43.3,29.53,SSW,209,10.4,10.4,100,0.00,CLR,,0.26,0.0,WeatherDisplay:10.37,2013-03-07 19:41:00,
2013-03-07 19:46:00,43.2,43.2,29.53,South,184,10.4,10.4,100,0.00,CLR,,0.26,0.0,WeatherDisplay:10.37,2013-03-07 19:46:00,
2013-03-07 19:51:00,43.2,43.2,29.53,South,172,11.5,11.5,100,0.00,CLR,,0.26,0.0,WeatherDisplay:10.37,2013-03-07 19:51:00,
2013-03-07 19:56:00,43.2,43.2,29.53,South,175,13.8,13.8,100,0.00,CLR,,0.26,0.0,WeatherDisplay:10.37,2013-03-07 19:56:00,
2013-03-07 20:01:00,43.2,43.2,29.52,SSW,209,12.0,12.0,100,0.00,CLR,,0.26,0.0,WeatherDisplay:10.37,2013-03-07 20:01:00,
2013-03-07 20:06:00,43.2,43.2,29.52,SSW,198,19.6,19.6,100,0.00,CLR,,0.26,0.0,WeatherDisplay:10.37,2013-03-07 20:06:00,
2013-03-07 20:11:00,43.2,43.2,29.52,SW,216,11.5,11.5,100,0.00,CLR,,0.26,0.0,WeatherDisplay:10.37,2013-03-07 20:11:00,
2013-03-07 20:16:00,43.1,43.1,29.52,NNW,340,15.0,15.0,100,0.00,CLR,,0.26,0.0,WeatherDisplay:10.37,2013-03-07 20:16:00,
2013-03-07 20:22:00,43.2,43.2,29.53,WSW,237,8.1,8.1,100,0.00,CLR,,0.26,0.0,WeatherDisplay:10.37,2013-03-07 20:22:00,
2013-03-07 20:27:00,43.2,43.2,29.53,SSW,213,11.5,11.5,100,0.00,CLR,,0.26,0.0,WeatherDisplay:10.37,2013-03-07 20:27:00,
2013-03-07 20:32:00,43.2,43.2,29.53,West,261,13.8,13.8,100,0.00,CLR,,0.26,0.0,WeatherDisplay:10.37,2013-03-07 20:32:00,
2013-03-07 20:37:00,43.1,43.1,29.53,South,185,18.4,18.4,100,0.00,CLR,,0.26,0.0,WeatherDisplay:10.37,2013-03-07 20:37:00,
2013-03-07 20:42:00,43.1,43.1,29.53,NNW,328,19.6,19.6,100,0.00,CLR,,0.26,0.0,WeatherDisplay:10.37,2013-03-07 20:42:00,
2013-03-07 20:48:00,43.1,43.1,29.53,ESE,114,10.4,10.4,100,0.00,CLR,,0.26,0.0,WeatherDisplay:10.37,2013-03-07 20:48:00,
2013-03-07 20:53:00,43.1,43.1,29.53,SSE,164,11.5,11.5,100,0.00,CLR,,0.26,0.0,WeatherDisplay:10.37,2013-03-07 20:53:00,
2013-03-07 20:58:00,43.1,43.1,29.53,SE,140,13.8,13.8,100,0.00,CLR,,0.26,0.0,WeatherDisplay:10.37,2013-03-07 20:58:00,
2013-03-07 21:03:00,43.1,43.1,29.53,SE,134,6.9,6.9,100,0.00,CLR,,0.26,0.0,WeatherDisplay:10.37,2013-03-07 21:03:00,
2013-03-07 21:08:00,43.1,43.1,29.53,South,184,8.0,8.0,100,0.00,CLR,,0.26,0.0,WeatherDisplay:10.37,2013-03-07 21:08:00,
2013-03-07 21:13:00,43.1,43.1,29.53,ESE,106,8.1,8.1,100,0.00,CLR,,0.26,0.0,WeatherDisplay:10.37,2013-03-07 21:13:00,
2013-03-07 21:19:00,43.1,43.1,29.53,South,181,11.5,11.5,100,0.00,CLR,,0.26,0.0,WeatherDisplay:10.37,2013-03-07 21:19:00,
2013-03-07 21:24:00,43.1,43.1,29.53,South,181,12.7,12.7,100,0.00,CLR,,0.26,0.0,WeatherDisplay:10.37,2013-03-07 21:24:00,
2013-03-07 21:29:00,43.1,43.1,29.53,SSE,148,11.5,11.5,100,0.00,CLR,,0.26,0.0,WeatherDisplay:10.37,2013-03-07 21:29:00,
2013-03-07 21:34:00,43.1,43.1,29.53,South,185,11.5,11.5,100,0.00,CLR,,0.26,0.0,WeatherDisplay:10.37,2013-03-07 21:34:00,
2013-03-07 21:39:00,43.1,43.1,29.53,ESE,112,17.3,17.3,100,0.00,CLR,,0.26,0.0,WeatherDisplay:10.37,2013-03-07 21:39:00,
2013-03-07 21:44:00,43.1,43.1,29.53,SSE,152,6.9,6.9,100,0.00,CLR,,0.26,0.0,WeatherDisplay:10.37,2013-03-07 21:44:00,
2013-03-07 21:50:00,43.1,43.1,29.53,SSE,158,11.5,11.5,100,0.00,CLR,,0.26,0.0,WeatherDisplay:10.37,2013-03-07 21:50:00,
2013-03-07 21:55:00,43.1,43.1,29.53,SE,131,8.1,8.1,100,0.00,CLR,,0.26,0.0,WeatherDisplay:10.37,2013-03-07 21:55:00,
2013-03-07 22:00:00,43.1,43.1,29.53,SSE,164,12.7,12.7,100,0.00,CLR,,0.26,0.0,WeatherDisplay:10.37,2013-03-07 22:00:00,
2013-03-07 22:05:00,43.1,43.1,29.53,SSE,155,6.9,6.9,100,0.00,,,0.26,0.0,WeatherDisplay:10.37,2013-03-07 22:05:00,
2013-03-07 22:10:00,43.1,43.1,29.53,SSE,154,8.0,8.0,100,0.00,CLR,,0.26,0.0,WeatherDisplay:10.37,2013-03-07 22:10:00,
2013-03-07 22:15:00,43.1,43.1,29.53,SSW,213,6.9,6.9,100,0.00,,,0.26,0.0,WeatherDisplay:10.37,2013-03-07 22:15:00,
2013-03-07 22:20:00,43.1,43.1,29.53,SSE,164,11.5,11.5,100,0.00,CLR,,0.26,0.0,WeatherDisplay:10.37,2013-03-07 22:20:00,
2013-03-07 22:26:00,43.1,43.1,29.53,SSE,168,8.1,8.1,100,0.00,CLR,,0.26,0.0,WeatherDisplay:10.37,2013-03-07 22:26:00,
2013-03-07 22:31:00,43.1,43.1,29.53,SSE,165,16.1,16.1,100,0.00,CLR,,0.26,0.0,WeatherDisplay:10.37,2013-03-07 22:31:00,
2013-03-07 22:36:00,43.1,43.1,29.53,SSE,167,10.4,10.4,100,0.00,CLR,,0.26,0.0,WeatherDisplay:10.37,2013-03-07 22:36:00,
2013-03-07 22:41:00,43.1,43.1,29.53,SSE,158,9.2,9.2,100,0.00,,,0.26,0.0,WeatherDisplay:10.37,2013-03-07 22:41:00,
2013-03-07 22:46:00,43.1,43.1,29.53,SSE,151,11.5,11.5,100,0.00,CLR,,0.26,0.0,WeatherDisplay:10.37,2013-03-07 22:46:00,
2013-03-07 22:51:00,42.9,42.9,29.53,SSE,167,11.0,11.0,100,0.00,CLR,,0.26,0.0,WeatherDisplay:10.37,2013-03-07 22:51:00,
2013-03-07 22:57:00,42.9,42.9,29.53,SSE,147,6.9,6.9,100,0.00,CLR,,0.26,0.0,WeatherDisplay:10.37,2013-03-07 22:57:00,
2013-03-07 23:02:00,42.9,42.9,29.53,SSE,155,8.1,8.1,100,0.00,CLR,,0.26,0.0,WeatherDisplay:10.37,2013-03-07 23:02:00,
2013-03-07 23:07:00,42.9,42.9,29.53,East,88,12.7,12.7,100,0.00,CLR,,0.26,0.0,WeatherDisplay:10.37,2013-03-07 23:07:00,
2013-03-07 23:12:00,42.9,42.9,29.53,SE,145,10.0,10.0,100,0.00,CLR,,0.26,0.0,WeatherDisplay:10.37,2013-03-07 23:12:00,
2013-03-07 23:17:00,42.8,42.8,29.53,SE,144,11.5,11.5,100,0.00,CLR,,0.26,0.0,WeatherDisplay:10.37,2013-03-07 23:17:00,
2013-03-07 23:23:00,42.8,42.8,29.53,ESE,120,12.7,12.7,100,0.00,CLR,,0.26,0.0,WeatherDisplay:10.37,2013-03-07 23:23:00,
2013-03-07 23:28:00,42.8,42.8,29.53,ESE,109,9.2,9.2,100,0.00,CLR,,0.26,0.0,WeatherDisplay:10.37,2013-03-07 23:28:00,
2013-03-07 23:33:00,42.6,42.6,29.53,ESE,110,12.7,12.7,100,0.00,CLR,,0.26,0.0,WeatherDisplay:10.37,2013-03-07 23:33:00,
2013-03-07 23:38:00,42.6,42.6,29.53,SE,126,12.7,12.7,100,0.00,CLR,,0.26,0.0,WeatherDisplay:10.37,2013-03-07 23:38:00,
2013-03-07 23:43:00,42.6,42.6,29.53,ESE,119,18.4,18.4,100,0.00,CLR,,0.26,0.0,WeatherDisplay:10.37,2013-03-07 23:43:00,
2013-03-07 23:48:00,42.6,42.6,29.53,ESE,106,10.4,10.4,100,0.00,CLR,,0.26,0.0,WeatherDisplay:10.37,2013-03-07 23:48:00,
2013-03-07 23:54:00,42.5,42.5,29.53,East,92,13.8,13.8,100,0.00,CLR,,0.26,0.0,WeatherDisplay:10.37,2013-03-07 23:54:00,
2013-03-07 23:59:00,42.5,42.5,29.52,South,174,12.7,12.7,100,0.00,CLR,,0.26,0.0,WeatherDisplay:10.37,2013-03-07 23:59:00,